LOG1FM EGNS-EGCC
Flight info
| Callsign | LOG1FM |
|---|---|
| Flight time | 0h 26m |
| Altitude | 15000 |
| Route | TIMIS Q39 DANDI DCT PENIL |
| Aircraft | SF34/M-SDFGR/S |
Departure
| Time | 2026-05-07 13:24 |
|---|---|
| Airport | Isle of Man Airport (EGNS) |
Arrival
| Time | 2026-05-07 13:51 |
|---|---|
| Airport | Manchester Airport (EGCC) |
| Time | Latitude | Longitude | Altitude | Speed | Heading |
|---|---|---|---|---|---|
| 2026-05-07 13:09 | 54.08565 | -4.63270 | 41 ft | 0 kts | 43° |
| 2026-05-07 13:16 | 54.08560 | -4.63277 | 41 ft | 4 kts | 45° |
| 2026-05-07 13:16 | 54.08543 | -4.63312 | 41 ft | 4 kts | 65° |
| 2026-05-07 13:16 | 54.08538 | -4.63351 | 41 ft | 4 kts | 113° |
| 2026-05-07 13:17 | 54.08543 | -4.63367 | 41 ft | 0 kts | 135° |
| 2026-05-07 13:19 | 54.08540 | -4.63362 | 41 ft | 4 kts | 135° |
| 2026-05-07 13:19 | 54.08483 | -4.63351 | 41 ft | 15 kts | 199° |
| 2026-05-07 13:20 | 54.08411 | -4.63209 | 39 ft | 19 kts | 115° |
| 2026-05-07 13:20 | 54.08417 | -4.62957 | 38 ft | 29 kts | 78° |
| 2026-05-07 13:20 | 54.08457 | -4.62633 | 41 ft | 24 kts | 78° |
| 2026-05-07 13:20 | 54.08616 | -4.62419 | 53 ft | 35 kts | 30° |
| 2026-05-07 13:21 | 54.08705 | -4.62314 | 56 ft | 3 kts | 330° |
| 2026-05-07 13:21 | 54.08697 | -4.62342 | 53 ft | 0 kts | 202° |
| 2026-05-07 13:22 | 54.08673 | -4.62362 | 54 ft | 0 kts | 205° |
| 2026-05-07 13:23 | 54.08489 | -4.62527 | 44 ft | 73 kts | 209° |
| 2026-05-07 13:24 | 54.07841 | -4.63127 | 186 ft | 130 kts | 208° |
| 2026-05-07 13:24 | 54.06964 | -4.63983 | 741 ft | 157 kts | 207° |
| 2026-05-07 13:24 | 54.05815 | -4.64290 | 1181 ft | 184 kts | 171° |
| 2026-05-07 13:24 | 54.04623 | -4.63185 | 1385 ft | 211 kts | 140° |
| 2026-05-07 13:25 | 54.03580 | -4.61467 | 1689 ft | 210 kts | 151° |
| 2026-05-07 13:25 | 54.02208 | -4.60883 | 2140 ft | 204 kts | 180° |
| 2026-05-07 13:25 | 54.00785 | -4.60879 | 2598 ft | 205 kts | 180° |
| 2026-05-07 13:25 | 53.99360 | -4.60691 | 3166 ft | 205 kts | 175° |
| 2026-05-07 13:26 | 53.97932 | -4.60397 | 3732 ft | 206 kts | 176° |
| 2026-05-07 13:26 | 53.96536 | -4.60166 | 4562 ft | 197 kts | 176° |
| 2026-05-07 13:26 | 53.95197 | -4.59890 | 5372 ft | 194 kts | 169° |
| 2026-05-07 13:26 | 53.94080 | -4.58605 | 6152 ft | 203 kts | 131° |
| 2026-05-07 13:27 | 53.93484 | -4.56395 | 6908 ft | 207 kts | 119° |
| 2026-05-07 13:27 | 53.92806 | -4.54302 | 7675 ft | 203 kts | 130° |
| 2026-05-07 13:27 | 53.91971 | -4.52365 | 8508 ft | 203 kts | 132° |
| 2026-05-07 13:27 | 53.91166 | -4.50380 | 9423 ft | 205 kts | 130° |
| 2026-05-07 13:28 | 53.90371 | -4.48389 | 10343 ft | 202 kts | 130° |
| 2026-05-07 13:28 | 53.89569 | -4.46439 | 11206 ft | 202 kts | 130° |
| 2026-05-07 13:28 | 53.88776 | -4.44477 | 12109 ft | 202 kts | 130° |
| 2026-05-07 13:28 | 53.87978 | -4.42520 | 13036 ft | 201 kts | 130° |
| 2026-05-07 13:29 | 53.87185 | -4.40570 | 13972 ft | 201 kts | 130° |
| 2026-05-07 13:29 | 53.86386 | -4.38613 | 14729 ft | 208 kts | 130° |
| 2026-05-07 13:29 | 53.85510 | -4.36481 | 14993 ft | 238 kts | 129° |
| 2026-05-07 13:29 | 53.84527 | -4.34064 | 15005 ft | 265 kts | 128° |
| 2026-05-07 13:30 | 53.83450 | -4.31415 | 15009 ft | 281 kts | 128° |
| 2026-05-07 13:30 | 53.82320 | -4.28658 | 15007 ft | 288 kts | 128° |
| 2026-05-07 13:30 | 53.81170 | -4.25843 | 15012 ft | 292 kts | 128° |
| 2026-05-07 13:30 | 53.80007 | -4.23008 | 15004 ft | 294 kts | 128° |
| 2026-05-07 13:31 | 53.78843 | -4.20167 | 15009 ft | 295 kts | 128° |
| 2026-05-07 13:31 | 53.77672 | -4.17320 | 15002 ft | 295 kts | 128° |
| 2026-05-07 13:31 | 53.76501 | -4.14469 | 15012 ft | 295 kts | 128° |
| 2026-05-07 13:31 | 53.75327 | -4.11620 | 15018 ft | 295 kts | 128° |
| 2026-05-07 13:32 | 53.74155 | -4.08777 | 15018 ft | 295 kts | 128° |
| 2026-05-07 13:32 | 53.72995 | -4.05963 | 15015 ft | 295 kts | 128° |
| 2026-05-07 13:32 | 53.71820 | -4.03120 | 15018 ft | 295 kts | 128° |
| 2026-05-07 13:32 | 53.70644 | -4.00277 | 15018 ft | 295 kts | 128° |
| 2026-05-07 13:33 | 53.69468 | -3.97439 | 15020 ft | 295 kts | 128° |
| 2026-05-07 13:33 | 53.68292 | -3.94595 | 15021 ft | 294 kts | 128° |
| 2026-05-07 13:33 | 53.67395 | -3.91468 | 15018 ft | 299 kts | 111° |
| 2026-05-07 13:33 | 53.66818 | -3.88108 | 15014 ft | 298 kts | 110° |
| 2026-05-07 13:34 | 53.66102 | -3.84833 | 15017 ft | 297 kts | 116° |
| 2026-05-07 13:34 | 53.64483 | -3.78486 | 15017 ft | 298 kts | 114° |
| 2026-05-07 13:34 | 53.63748 | -3.75222 | 15019 ft | 298 kts | 115° |
| 2026-05-07 13:35 | 53.62951 | -3.72000 | 15021 ft | 297 kts | 116° |
| 2026-05-07 13:35 | 53.62170 | -3.68777 | 15022 ft | 298 kts | 115° |
| 2026-05-07 13:35 | 53.61403 | -3.65542 | 15019 ft | 296 kts | 118° |
| 2026-05-07 13:35 | 53.60281 | -3.62697 | 15006 ft | 290 kts | 134° |
| 2026-05-07 13:36 | 53.58952 | -3.60146 | 15008 ft | 290 kts | 133° |
| 2026-05-07 13:36 | 53.57963 | -3.57182 | 15008 ft | 297 kts | 110° |
| 2026-05-07 13:36 | 53.57819 | -3.53740 | 15009 ft | 304 kts | 85° |
| 2026-05-07 13:36 | 53.58121 | -3.50227 | 15014 ft | 302 kts | 90° |
| 2026-05-07 13:37 | 53.57975 | -3.46727 | 15015 ft | 299 kts | 103° |
| 2026-05-07 13:37 | 53.57627 | -3.43274 | 15016 ft | 300 kts | 101° |
| 2026-05-07 13:37 | 53.57431 | -3.39779 | 15018 ft | 302 kts | 97° |
| 2026-05-07 13:37 | 53.57317 | -3.36243 | 15018 ft | 302 kts | 96° |
| 2026-05-07 13:38 | 53.57135 | -3.32732 | 15016 ft | 301 kts | 99° |
| 2026-05-07 13:38 | 53.56922 | -3.29227 | 15020 ft | 302 kts | 98° |
| 2026-05-07 13:38 | 53.56770 | -3.25702 | 15020 ft | 302 kts | 97° |
| 2026-05-07 13:38 | 53.56580 | -3.22232 | 15020 ft | 302 kts | 99° |
| 2026-05-07 13:39 | 53.56385 | -3.18719 | 15025 ft | 302 kts | 98° |
| 2026-05-07 13:39 | 53.56215 | -3.15197 | 15026 ft | 302 kts | 98° |
| 2026-05-07 13:39 | 53.56019 | -3.11682 | 15020 ft | 302 kts | 98° |
| 2026-05-07 13:39 | 53.55832 | -3.08166 | 14983 ft | 302 kts | 98° |
| 2026-05-07 13:40 | 53.55644 | -3.04600 | 14632 ft | 309 kts | 98° |
| 2026-05-07 13:40 | 53.55446 | -3.00981 | 14268 ft | 311 kts | 98° |
| 2026-05-07 13:40 | 53.55251 | -2.97362 | 13910 ft | 310 kts | 98° |
| 2026-05-07 13:40 | 53.55055 | -2.93755 | 13517 ft | 309 kts | 98° |
| 2026-05-07 13:41 | 53.54857 | -2.90166 | 13115 ft | 307 kts | 98° |
| 2026-05-07 13:41 | 53.54664 | -2.86646 | 12724 ft | 306 kts | 98° |
| 2026-05-07 13:41 | 53.54467 | -2.83107 | 12333 ft | 304 kts | 98° |
| 2026-05-07 13:41 | 53.54270 | -2.79582 | 11954 ft | 302 kts | 98° |
| 2026-05-07 13:42 | 53.54074 | -2.76067 | 11435 ft | 303 kts | 98° |
| 2026-05-07 13:42 | 53.53874 | -2.72545 | 10813 ft | 303 kts | 98° |
| 2026-05-07 13:42 | 53.53675 | -2.69027 | 10201 ft | 301 kts | 99° |
| 2026-05-07 13:42 | 53.53476 | -2.65531 | 9550 ft | 299 kts | 98° |
| 2026-05-07 13:43 | 53.53279 | -2.62073 | 8893 ft | 296 kts | 98° |
| 2026-05-07 13:43 | 53.53083 | -2.58694 | 8245 ft | 293 kts | 98° |
| 2026-05-07 13:43 | 53.52884 | -2.55249 | 7586 ft | 292 kts | 98° |
| 2026-05-07 13:43 | 53.52692 | -2.51923 | 6966 ft | 289 kts | 99° |
| 2026-05-07 13:44 | 53.52496 | -2.48578 | 6381 ft | 286 kts | 98° |
| 2026-05-07 13:44 | 53.52304 | -2.45302 | 5987 ft | 278 kts | 98° |
| 2026-05-07 13:44 | 53.52056 | -2.42101 | 5593 ft | 274 kts | 102° |
| 2026-05-07 13:44 | 53.51773 | -2.38951 | 5273 ft | 271 kts | 101° |
| 2026-05-07 13:45 | 53.51551 | -2.35831 | 5012 ft | 267 kts | 99° |
| 2026-05-07 13:45 | 53.51305 | -2.32744 | 4748 ft | 265 kts | 101° |
| 2026-05-07 13:45 | 53.51049 | -2.29682 | 4489 ft | 264 kts | 101° |
| 2026-05-07 13:45 | 53.50819 | -2.26670 | 4232 ft | 263 kts | 101° |
| 2026-05-07 13:46 | 53.50575 | -2.23638 | 3976 ft | 261 kts | 101° |
| 2026-05-07 13:46 | 53.50128 | -2.20758 | 3709 ft | 252 kts | 121° |
| 2026-05-07 13:46 | 53.49039 | -2.18785 | 3542 ft | 200 kts | 153° |
| 2026-05-07 13:46 | 53.47868 | -2.18256 | 3294 ft | 169 kts | 171° |
| 2026-05-07 13:47 | 53.46720 | -2.17875 | 2848 ft | 167 kts | 169° |
| 2026-05-07 13:47 | 53.45594 | -2.17465 | 2420 ft | 164 kts | 169° |
| 2026-05-07 13:47 | 53.44490 | -2.17094 | 2122 ft | 159 kts | 169° |
| 2026-05-07 13:47 | 53.43437 | -2.16761 | 1899 ft | 151 kts | 171° |
| 2026-05-07 13:48 | 53.42411 | -2.16497 | 1665 ft | 152 kts | 173° |
| 2026-05-07 13:48 | 53.41351 | -2.16400 | 1620 ft | 155 kts | 182° |
| 2026-05-07 13:48 | 53.40398 | -2.16992 | 1716 ft | 151 kts | 225° |
| 2026-05-07 13:48 | 53.39748 | -2.18455 | 1646 ft | 160 kts | 231° |
| 2026-05-07 13:49 | 53.39136 | -2.19811 | 1457 ft | 128 kts | 225° |
| 2026-05-07 13:49 | 53.38596 | -2.20918 | 1230 ft | 119 kts | 226° |
| 2026-05-07 13:49 | 53.38058 | -2.21981 | 990 ft | 120 kts | 226° |
| 2026-05-07 13:49 | 53.37528 | -2.23057 | 799 ft | 121 kts | 228° |
| 2026-05-07 13:50 | 53.36988 | -2.24165 | 618 ft | 123 kts | 228° |
| 2026-05-07 13:50 | 53.36495 | -2.25184 | 418 ft | 108 kts | 229° |
| 2026-05-07 13:50 | 53.36038 | -2.26124 | 273 ft | 102 kts | 227° |
| 2026-05-07 13:50 | 53.35656 | -2.26910 | 257 ft | 68 kts | 231° |
| 2026-05-07 13:51 | 53.35507 | -2.27231 | 245 ft | 12 kts | 231° |
| 2026-05-07 13:51 | 53.35475 | -2.27336 | 244 ft | 8 kts | 323° |
| 2026-05-07 13:51 | 53.35544 | -2.27422 | 242 ft | 10 kts | 324° |
| 2026-05-07 13:51 | 53.35575 | -2.27462 | 241 ft | 0 kts | 320° |
| 2026-05-07 13:52 | 53.35600 | -2.27495 | 240 ft | 19 kts | 323° |
| 2026-05-07 13:52 | 53.35630 | -2.27442 | 242 ft | 22 kts | 66° |
| 2026-05-07 13:52 | 53.35695 | -2.27299 | 251 ft | 12 kts | 51° |
| 2026-05-07 13:53 | 53.35758 | -2.27170 | 251 ft | 6 kts | 47° |
| 2026-05-07 13:53 | 53.35810 | -2.27060 | 251 ft | 15 kts | 59° |
| 2026-05-07 13:53 | 53.35843 | -2.26968 | 251 ft | 3 kts | 24° |
| 2026-05-07 13:53 | 53.35876 | -2.27004 | 251 ft | 4 kts | 315° |
| 2026-05-07 13:54 | 53.35894 | -2.27033 | 251 ft | 1 kts | 316° |
| 2026-05-07 13:54 | 53.35896 | -2.27038 | 251 ft | 0 kts | 315° |